sensor_id;sensor_type;location;lat;lon;timestamp;P1;durP1;ratioP1;P2;durP2;ratioP2
69463;SDS011;56665;41.106;16.688;2022-11-03T00:01:13;9.75;;;4.80;;
69463;SDS011;56665;41.106;16.688;2022-11-03T00:04:17;11.27;;;4.80;;
69463;SDS011;56665;41.106;16.688;2022-11-03T00:07:22;11.18;;;4.80;;
69463;SDS011;56665;41.106;16.688;2022-11-03T00:10:26;9.37;;;4.53;;
69463;SDS011;56665;41.106;16.688;2022-11-03T00:13:30;9.40;;;4.95;;
69463;SDS011;56665;41.106;16.688;2022-11-03T00:16:33;11.77;;;4.72;;
69463;SDS011;56665;41.106;16.688;2022-11-03T00:19:37;14.43;;;5.13;;
69463;SDS011;56665;41.106;16.688;2022-11-03T00:22:41;10.35;;;4.70;;
69463;SDS011;56665;41.106;16.688;2022-11-03T00:25:45;12.63;;;4.60;;
69463;SDS011;56665;41.106;16.688;2022-11-03T00:28:50;10.25;;;4.70;;
69463;SDS011;56665;41.106;16.688;2022-11-03T00:32:13;10.55;;;4.50;;
69463;SDS011;56665;41.106;16.688;2022-11-03T00:35:17;10.27;;;4.40;;
69463;SDS011;56665;41.106;16.688;2022-11-03T00:38:20;10.35;;;4.32;;
69463;SDS011;56665;41.106;16.688;2022-11-03T00:41:25;9.70;;;4.37;;
69463;SDS011;56665;41.106;16.688;2022-11-03T00:44:29;9.48;;;4.18;;
69463;SDS011;56665;41.106;16.688;2022-11-03T00:47:33;7.15;;;4.15;;
69463;SDS011;56665;41.106;16.688;2022-11-03T00:50:36;10.40;;;4.45;;
69463;SDS011;56665;41.106;16.688;2022-11-03T00:53:44;9.85;;;4.35;;
69463;SDS011;56665;41.106;16.688;2022-11-03T00:56:49;9.37;;;4.10;;
69463;SDS011;56665;41.106;16.688;2022-11-03T00:59:53;10.90;;;4.55;;
69463;SDS011;56665;41.106;16.688;2022-11-03T01:02:56;8.80;;;4.50;;
69463;SDS011;56665;41.106;16.688;2022-11-03T01:06:01;7.25;;;3.63;;
69463;SDS011;56665;41.106;16.688;2022-11-03T01:12:35;13.43;;;3.83;;
69463;SDS011;56665;41.106;16.688;2022-11-03T01:15:39;9.80;;;4.10;;
69463;SDS011;56665;41.106;16.688;2022-11-03T01:18:42;9.60;;;4.32;;
69463;SDS011;56665;41.106;16.688;2022-11-03T01:21:46;8.60;;;3.70;;
69463;SDS011;56665;41.106;16.688;2022-11-03T01:24:50;11.98;;;4.15;;
69463;SDS011;56665;41.106;16.688;2022-11-03T01:27:56;8.70;;;3.73;;
69463;SDS011;56665;41.106;16.688;2022-11-03T01:31:07;10.52;;;3.60;;
69463;SDS011;56665;41.106;16.688;2022-11-03T01:34:16;9.00;;;3.65;;
69463;SDS011;56665;41.106;16.688;2022-11-03T01:37:23;7.50;;;3.55;;
69463;SDS011;56665;41.106;16.688;2022-11-03T01:40:27;9.15;;;3.53;;
69463;SDS011;56665;41.106;16.688;2022-11-03T01:43:31;6.20;;;3.20;;
69463;SDS011;56665;41.106;16.688;2022-11-03T01:46:40;9.32;;;3.40;;
69463;SDS011;56665;41.106;16.688;2022-11-03T01:49:51;8.13;;;3.60;;
69463;SDS011;56665;41.106;16.688;2022-11-03T01:52:56;10.35;;;3.97;;
69463;SDS011;56665;41.106;16.688;2022-11-03T01:56:01;7.78;;;3.53;;
69463;SDS011;56665;41.106;16.688;2022-11-03T01:59:06;7.93;;;3.90;;
69463;SDS011;56665;41.106;16.688;2022-11-03T02:02:10;8.07;;;3.35;;
69463;SDS011;56665;41.106;16.688;2022-11-03T02:05:14;10.93;;;3.80;;
69463;SDS011;56665;41.106;16.688;2022-11-03T02:08:27;9.32;;;3.60;;
69463;SDS011;56665;41.106;16.688;2022-11-03T02:11:41;8.13;;;3.78;;
69463;SDS011;56665;41.106;16.688;2022-11-03T02:15:04;9.53;;;3.77;;
69463;SDS011;56665;41.106;16.688;2022-11-03T02:18:11;7.80;;;3.60;;
69463;SDS011;56665;41.106;16.688;2022-11-03T02:21:22;8.57;;;3.53;;
69463;SDS011;56665;41.106;16.688;2022-11-03T02:24:39;8.32;;;3.70;;
69463;SDS011;56665;41.106;16.688;2022-11-03T02:27:48;8.23;;;3.63;;
69463;SDS011;56665;41.106;16.688;2022-11-03T02:34:12;8.80;;;3.92;;
69463;SDS011;56665;41.106;16.688;2022-11-03T02:37:22;10.93;;;4.00;;
69463;SDS011;56665;41.106;16.688;2022-11-03T02:40:35;7.95;;;3.65;;
69463;SDS011;56665;41.106;16.688;2022-11-03T02:43:43;12.52;;;4.55;;
69463;SDS011;56665;41.106;16.688;2022-11-03T02:46:49;7.87;;;3.80;;
69463;SDS011;56665;41.106;16.688;2022-11-03T02:49:58;14.27;;;5.63;;
69463;SDS011;56665;41.106;16.688;2022-11-03T02:53:02;7.32;;;4.15;;
69463;SDS011;56665;41.106;16.688;2022-11-03T02:56:06;7.40;;;3.60;;
69463;SDS011;56665;41.106;16.688;2022-11-03T02:59:24;8.23;;;3.30;;
69463;SDS011;56665;41.106;16.688;2022-11-03T03:02:34;6.27;;;3.10;;
69463;SDS011;56665;41.106;16.688;2022-11-03T03:06:04;7.60;;;3.08;;
69463;SDS011;56665;41.106;16.688;2022-11-03T03:09:14;8.90;;;4.10;;
69463;SDS011;56665;41.106;16.688;2022-11-03T03:12:23;8.18;;;3.60;;
69463;SDS011;56665;41.106;16.688;2022-11-03T03:15:34;10.35;;;3.30;;
69463;SDS011;56665;41.106;16.688;2022-11-03T03:19:17;10.40;;;3.93;;
69463;SDS011;56665;41.106;16.688;2022-11-03T03:25:44;8.25;;;2.83;;
69463;SDS011;56665;41.106;16.688;2022-11-03T03:28:53;8.05;;;2.70;;
69463;SDS011;56665;41.106;16.688;2022-11-03T03:32:06;9.18;;;2.60;;
69463;SDS011;56665;41.106;16.688;2022-11-03T03:35:22;8.70;;;2.90;;
69463;SDS011;56665;41.106;16.688;2022-11-03T03:38:31;7.80;;;2.67;;
69463;SDS011;56665;41.106;16.688;2022-11-03T03:41:39;8.48;;;3.42;;
69463;SDS011;56665;41.106;16.688;2022-11-03T03:44:44;9.98;;;3.60;;
69463;SDS011;56665;41.106;16.688;2022-11-03T03:47:49;8.43;;;3.30;;
69463;SDS011;56665;41.106;16.688;2022-11-03T03:50:53;5.23;;;2.93;;
69463;SDS011;56665;41.106;16.688;2022-11-03T03:53:57;9.75;;;2.95;;
69463;SDS011;56665;41.106;16.688;2022-11-03T03:57:02;6.82;;;2.95;;
69463;SDS011;56665;41.106;16.688;2022-11-03T04:00:07;5.93;;;3.03;;
69463;SDS011;56665;41.106;16.688;2022-11-03T04:03:16;5.50;;;3.10;;
69463;SDS011;56665;41.106;16.688;2022-11-03T04:06:22;6.50;;;2.53;;
69463;SDS011;56665;41.106;16.688;2022-11-03T04:09:27;7.07;;;2.72;;
69463;SDS011;56665;41.106;16.688;2022-11-03T04:12:31;7.60;;;2.63;;
69463;SDS011;56665;41.106;16.688;2022-11-03T04:15:53;9.85;;;3.00;;
69463;SDS011;56665;41.106;16.688;2022-11-03T04:19:15;6.70;;;3.08;;
69463;SDS011;56665;41.106;16.688;2022-11-03T04:22:37;8.33;;;2.90;;
69463;SDS011;56665;41.106;16.688;2022-11-03T04:25:41;6.88;;;2.80;;
69463;SDS011;56665;41.106;16.688;2022-11-03T04:28:50;6.03;;;2.80;;
69463;SDS011;56665;41.106;16.688;2022-11-03T04:31:55;7.72;;;2.70;;
69463;SDS011;56665;41.106;16.688;2022-11-03T04:34:59;8.40;;;2.90;;
69463;SDS011;56665;41.106;16.688;2022-11-03T04:38:07;8.10;;;2.90;;
69463;SDS011;56665;41.106;16.688;2022-11-03T04:41:28;6.72;;;3.15;;
69463;SDS011;56665;41.106;16.688;2022-11-03T04:44:35;8.63;;;3.00;;
69463;SDS011;56665;41.106;16.688;2022-11-03T04:47:39;8.38;;;2.80;;
69463;SDS011;56665;41.106;16.688;2022-11-03T04:50:43;6.03;;;2.83;;
69463;SDS011;56665;41.106;16.688;2022-11-03T04:53:54;6.70;;;2.73;;
69463;SDS011;56665;41.106;16.688;2022-11-03T04:57:07;8.10;;;3.63;;
69463;SDS011;56665;41.106;16.688;2022-11-03T05:00:14;5.43;;;2.90;;
69463;SDS011;56665;41.106;16.688;2022-11-03T05:03:27;5.03;;;2.70;;
69463;SDS011;56665;41.106;16.688;2022-11-03T05:06:34;7.05;;;2.60;;
69463;SDS011;56665;41.106;16.688;2022-11-03T05:09:38;6.63;;;2.50;;
69463;SDS011;56665;41.106;16.688;2022-11-03T05:12:42;7.75;;;2.28;;
69463;SDS011;56665;41.106;16.688;2022-11-03T05:15:46;4.45;;;2.42;;
69463;SDS011;56665;41.106;16.688;2022-11-03T05:18:51;8.50;;;3.03;;
69463;SDS011;56665;41.106;16.688;2022-11-03T05:21:55;8.32;;;3.80;;
69463;SDS011;56665;41.106;16.688;2022-11-03T05:25:03;8.13;;;3.80;;
69463;SDS011;56665;41.106;16.688;2022-11-03T05:28:44;10.40;;;4.17;;
69463;SDS011;56665;41.106;16.688;2022-11-03T05:31:53;10.70;;;6.03;;
69463;SDS011;56665;41.106;16.688;2022-11-03T05:34:58;10.55;;;5.47;;
69463;SDS011;56665;41.106;16.688;2022-11-03T05:38:02;11.25;;;4.93;;
69463;SDS011;56665;41.106;16.688;2022-11-03T05:41:17;11.90;;;4.77;;
69463;SDS011;56665;41.106;16.688;2022-11-03T05:44:35;13.27;;;5.05;;
69463;SDS011;56665;41.106;16.688;2022-11-03T05:47:41;13.85;;;5.28;;
69463;SDS011;56665;41.106;16.688;2022-11-03T05:50:45;9.75;;;4.75;;
69463;SDS011;56665;41.106;16.688;2022-11-03T05:53:52;14.32;;;4.75;;
69463;SDS011;56665;41.106;16.688;2022-11-03T05:56:59;8.93;;;4.30;;
69463;SDS011;56665;41.106;16.688;2022-11-03T06:00:03;10.18;;;5.40;;
69463;SDS011;56665;41.106;16.688;2022-11-03T06:03:15;11.27;;;5.60;;
69463;SDS011;56665;41.106;16.688;2022-11-03T06:06:31;13.20;;;6.53;;
69463;SDS011;56665;41.106;16.688;2022-11-03T06:09:38;17.42;;;8.55;;
69463;SDS011;56665;41.106;16.688;2022-11-03T06:12:42;17.88;;;10.52;;
69463;SDS011;56665;41.106;16.688;2022-11-03T06:15:46;19.38;;;10.90;;
69463;SDS011;56665;41.106;16.688;2022-11-03T06:18:53;20.88;;;11.30;;
69463;SDS011;56665;41.106;16.688;2022-11-03T06:22:01;18.77;;;9.35;;
69463;SDS011;56665;41.106;16.688;2022-11-03T06:25:26;13.57;;;7.45;;
69463;SDS011;56665;41.106;16.688;2022-11-03T06:28:33;13.00;;;7.00;;
69463;SDS011;56665;41.106;16.688;2022-11-03T06:31:40;20.92;;;7.63;;
69463;SDS011;56665;41.106;16.688;2022-11-03T06:34:46;15.52;;;7.05;;
69463;SDS011;56665;41.106;16.688;2022-11-03T06:37:54;16.35;;;6.97;;
69463;SDS011;56665;41.106;16.688;2022-11-03T06:41:00;15.63;;;6.97;;
69463;SDS011;56665;41.106;16.688;2022-11-03T06:47:28;14.52;;;7.43;;
69463;SDS011;56665;41.106;16.688;2022-11-03T06:50:31;15.63;;;7.30;;
69463;SDS011;56665;41.106;16.688;2022-11-03T06:53:35;14.20;;;6.57;;
69463;SDS011;56665;41.106;16.688;2022-11-03T06:56:39;14.65;;;7.20;;
69463;SDS011;56665;41.106;16.688;2022-11-03T06:59:44;17.27;;;9.07;;
69463;SDS011;56665;41.106;16.688;2022-11-03T07:05:57;17.67;;;9.25;;
69463;SDS011;56665;41.106;16.688;2022-11-03T07:09:27;17.17;;;8.07;;
69463;SDS011;56665;41.106;16.688;2022-11-03T07:12:30;15.32;;;9.23;;
69463;SDS011;56665;41.106;16.688;2022-11-03T07:15:34;16.55;;;7.68;;
69463;SDS011;56665;41.106;16.688;2022-11-03T07:18:40;13.68;;;7.05;;
69463;SDS011;56665;41.106;16.688;2022-11-03T07:21:52;16.02;;;7.50;;
69463;SDS011;56665;41.106;16.688;2022-11-03T07:25:00;14.70;;;7.13;;
69463;SDS011;56665;41.106;16.688;2022-11-03T07:28:07;14.82;;;7.38;;
69463;SDS011;56665;41.106;16.688;2022-11-03T07:31:14;14.23;;;7.15;;
69463;SDS011;56665;41.106;16.688;2022-11-03T07:34:21;19.25;;;7.40;;
69463;SDS011;56665;41.106;16.688;2022-11-03T07:37:29;12.60;;;6.40;;
69463;SDS011;56665;41.106;16.688;2022-11-03T07:40:33;15.70;;;6.75;;
69463;SDS011;56665;41.106;16.688;2022-11-03T07:43:37;14.48;;;7.20;;
69463;SDS011;56665;41.106;16.688;2022-11-03T07:46:41;11.52;;;6.57;;
69463;SDS011;56665;41.106;16.688;2022-11-03T07:49:46;13.25;;;7.38;;
69463;SDS011;56665;41.106;16.688;2022-11-03T07:52:50;13.90;;;6.75;;
69463;SDS011;56665;41.106;16.688;2022-11-03T07:55:54;12.35;;;6.22;;
69463;SDS011;56665;41.106;16.688;2022-11-03T07:58:59;12.75;;;6.20;;
69463;SDS011;56665;41.106;16.688;2022-11-03T08:02:36;13.18;;;5.72;;
69463;SDS011;56665;41.106;16.688;2022-11-03T08:05:45;12.73;;;7.38;;
69463;SDS011;56665;41.106;16.688;2022-11-03T08:08:49;13.38;;;6.70;;
69463;SDS011;56665;41.106;16.688;2022-11-03T08:11:53;12.75;;;7.53;;
69463;SDS011;56665;41.106;16.688;2022-11-03T08:14:57;14.75;;;8.43;;
69463;SDS011;56665;41.106;16.688;2022-11-03T08:18:02;13.45;;;7.30;;
69463;SDS011;56665;41.106;16.688;2022-11-03T08:21:06;12.45;;;6.80;;
69463;SDS011;56665;41.106;16.688;2022-11-03T08:24:10;13.52;;;7.45;;
69463;SDS011;56665;41.106;16.688;2022-11-03T08:27:13;13.90;;;7.80;;
69463;SDS011;56665;41.106;16.688;2022-11-03T08:30:17;14.00;;;6.80;;
69463;SDS011;56665;41.106;16.688;2022-11-03T08:33:21;9.50;;;6.45;;
69463;SDS011;56665;41.106;16.688;2022-11-03T08:36:25;13.73;;;7.30;;
69463;SDS011;56665;41.106;16.688;2022-11-03T08:39:28;11.82;;;6.93;;
69463;SDS011;56665;41.106;16.688;2022-11-03T08:42:33;12.48;;;6.72;;
69463;SDS011;56665;41.106;16.688;2022-11-03T08:45:37;11.07;;;5.95;;
69463;SDS011;56665;41.106;16.688;2022-11-03T08:48:41;8.80;;;6.00;;
69463;SDS011;56665;41.106;16.688;2022-11-03T08:51:44;10.75;;;5.65;;
69463;SDS011;56665;41.106;16.688;2022-11-03T08:54:48;12.05;;;6.25;;
69463;SDS011;56665;41.106;16.688;2022-11-03T08:57:52;8.48;;;5.55;;
69463;SDS011;56665;41.106;16.688;2022-11-03T09:00:56;9.93;;;5.80;;
69463;SDS011;56665;41.106;16.688;2022-11-03T09:04:00;11.98;;;5.82;;
69463;SDS011;56665;41.106;16.688;2022-11-03T09:07:03;13.40;;;6.00;;
69463;SDS011;56665;41.106;16.688;2022-11-03T09:10:08;13.27;;;5.75;;
69463;SDS011;56665;41.106;16.688;2022-11-03T09:13:12;14.18;;;6.80;;
69463;SDS011;56665;41.106;16.688;2022-11-03T09:16:16;10.73;;;6.00;;
69463;SDS011;56665;41.106;16.688;2022-11-03T09:19:19;11.20;;;5.75;;
69463;SDS011;56665;41.106;16.688;2022-11-03T09:22:23;12.02;;;5.40;;
69463;SDS011;56665;41.106;16.688;2022-11-03T09:25:27;13.13;;;6.05;;
69463;SDS011;56665;41.106;16.688;2022-11-03T09:28:31;10.75;;;5.38;;
69463;SDS011;56665;41.106;16.688;2022-11-03T09:31:35;9.60;;;5.85;;
69463;SDS011;56665;41.106;16.688;2022-11-03T09:34:39;13.77;;;7.03;;
69463;SDS011;56665;41.106;16.688;2022-11-03T09:37:42;13.07;;;6.90;;
69463;SDS011;56665;41.106;16.688;2022-11-03T09:40:47;12.18;;;7.10;;
69463;SDS011;56665;41.106;16.688;2022-11-03T09:43:51;13.65;;;6.95;;
69463;SDS011;56665;41.106;16.688;2022-11-03T09:46:55;11.73;;;6.20;;
69463;SDS011;56665;41.106;16.688;2022-11-03T09:50:00;12.32;;;6.63;;
69463;SDS011;56665;41.106;16.688;2022-11-03T09:53:07;11.00;;;6.82;;
69463;SDS011;56665;41.106;16.688;2022-11-03T09:56:18;10.02;;;6.63;;
69463;SDS011;56665;41.106;16.688;2022-11-03T09:59:24;11.50;;;6.78;;
69463;SDS011;56665;41.106;16.688;2022-11-03T10:02:28;14.10;;;7.18;;
69463;SDS011;56665;41.106;16.688;2022-11-03T10:05:34;11.18;;;6.53;;
69463;SDS011;56665;41.106;16.688;2022-11-03T10:08:37;12.10;;;7.38;;
69463;SDS011;56665;41.106;16.688;2022-11-03T10:11:44;13.52;;;7.38;;
69463;SDS011;56665;41.106;16.688;2022-11-03T10:14:49;11.02;;;6.63;;
69463;SDS011;56665;41.106;16.688;2022-11-03T10:17:54;11.48;;;6.97;;
69463;SDS011;56665;41.106;16.688;2022-11-03T10:21:03;11.70;;;7.00;;
69463;SDS011;56665;41.106;16.688;2022-11-03T10:24:09;13.60;;;6.95;;
69463;SDS011;56665;41.106;16.688;2022-11-03T10:27:20;13.20;;;6.28;;
69463;SDS011;56665;41.106;16.688;2022-11-03T10:30:25;11.68;;;6.15;;
69463;SDS011;56665;41.106;16.688;2022-11-03T10:33:36;11.75;;;6.57;;
69463;SDS011;56665;41.106;16.688;2022-11-03T10:36:40;13.77;;;8.82;;
69463;SDS011;56665;41.106;16.688;2022-11-03T10:39:44;20.90;;;12.77;;
69463;SDS011;56665;41.106;16.688;2022-11-03T10:42:56;18.23;;;10.80;;
69463;SDS011;56665;41.106;16.688;2022-11-03T10:46:08;16.23;;;10.00;;
69463;SDS011;56665;41.106;16.688;2022-11-03T10:49:22;19.92;;;11.25;;
69463;SDS011;56665;41.106;16.688;2022-11-03T10:52:26;17.92;;;11.52;;
69463;SDS011;56665;41.106;16.688;2022-11-03T10:55:32;23.15;;;12.05;;
69463;SDS011;56665;41.106;16.688;2022-11-03T10:58:36;27.77;;;11.73;;
69463;SDS011;56665;41.106;16.688;2022-11-03T11:01:39;18.13;;;10.90;;
69463;SDS011;56665;41.106;16.688;2022-11-03T11:04:45;21.77;;;11.98;;
69463;SDS011;56665;41.106;16.688;2022-11-03T11:07:50;17.45;;;10.13;;
69463;SDS011;56665;41.106;16.688;2022-11-03T11:10:55;18.85;;;10.63;;
69463;SDS011;56665;41.106;16.688;2022-11-03T11:17:38;17.55;;;10.00;;
69463;SDS011;56665;41.106;16.688;2022-11-03T11:20:44;17.40;;;9.90;;
69463;SDS011;56665;41.106;16.688;2022-11-03T11:23:48;17.38;;;9.93;;
69463;SDS011;56665;41.106;16.688;2022-11-03T11:26:55;14.10;;;8.48;;
69463;SDS011;56665;41.106;16.688;2022-11-03T11:29:59;19.05;;;10.48;;
69463;SDS011;56665;41.106;16.688;2022-11-03T11:36:20;13.50;;;9.10;;
69463;SDS011;56665;41.106;16.688;2022-11-03T11:42:30;20.48;;;9.25;;
69463;SDS011;56665;41.106;16.688;2022-11-03T11:49:15;12.68;;;8.23;;
69463;SDS011;56665;41.106;16.688;2022-11-03T11:52:19;13.55;;;8.52;;
69463;SDS011;56665;41.106;16.688;2022-11-03T12:01:54;14.30;;;9.02;;
69463;SDS011;56665;41.106;16.688;2022-11-03T12:04:59;11.18;;;6.82;;
69463;SDS011;56665;41.106;16.688;2022-11-03T12:08:15;12.30;;;7.13;;
69463;SDS011;56665;41.106;16.688;2022-11-03T12:11:39;14.23;;;6.95;;
69463;SDS011;56665;41.106;16.688;2022-11-03T12:14:44;11.93;;;6.15;;
69463;SDS011;56665;41.106;16.688;2022-11-03T12:17:48;10.27;;;6.32;;
69463;SDS011;56665;41.106;16.688;2022-11-03T12:20:51;13.93;;;6.95;;
69463;SDS011;56665;41.106;16.688;2022-11-03T12:23:55;12.48;;;7.32;;
69463;SDS011;56665;41.106;16.688;2022-11-03T12:26:59;15.02;;;7.65;;
69463;SDS011;56665;41.106;16.688;2022-11-03T12:30:04;10.65;;;6.80;;
69463;SDS011;56665;41.106;16.688;2022-11-03T12:33:15;11.60;;;7.32;;
69463;SDS011;56665;41.106;16.688;2022-11-03T12:36:19;14.38;;;7.25;;
69463;SDS011;56665;41.106;16.688;2022-11-03T12:39:22;13.85;;;6.82;;
69463;SDS011;56665;41.106;16.688;2022-11-03T12:42:26;14.65;;;7.38;;
69463;SDS011;56665;41.106;16.688;2022-11-03T12:45:30;13.38;;;6.93;;
69463;SDS011;56665;41.106;16.688;2022-11-03T12:48:34;10.73;;;6.53;;
69463;SDS011;56665;41.106;16.688;2022-11-03T12:51:38;11.18;;;6.95;;
69463;SDS011;56665;41.106;16.688;2022-11-03T12:54:41;11.10;;;6.20;;
69463;SDS011;56665;41.106;16.688;2022-11-03T12:57:45;13.25;;;6.00;;
69463;SDS011;56665;41.106;16.688;2022-11-03T13:00:49;10.50;;;5.85;;
69463;SDS011;56665;41.106;16.688;2022-11-03T13:03:53;8.77;;;5.40;;
69463;SDS011;56665;41.106;16.688;2022-11-03T13:06:57;15.65;;;6.32;;
69463;SDS011;56665;41.106;16.688;2022-11-03T13:10:00;11.48;;;6.55;;
69463;SDS011;56665;41.106;16.688;2022-11-03T13:13:05;10.80;;;5.85;;
69463;SDS011;56665;41.106;16.688;2022-11-03T13:16:09;10.60;;;6.15;;
69463;SDS011;56665;41.106;16.688;2022-11-03T13:19:13;8.98;;;5.50;;
69463;SDS011;56665;41.106;16.688;2022-11-03T13:22:17;9.18;;;5.55;;
69463;SDS011;56665;41.106;16.688;2022-11-03T13:25:22;11.02;;;5.80;;
69463;SDS011;56665;41.106;16.688;2022-11-03T13:28:26;9.90;;;5.38;;
69463;SDS011;56665;41.106;16.688;2022-11-03T13:31:30;9.48;;;6.30;;
69463;SDS011;56665;41.106;16.688;2022-11-03T13:34:34;10.32;;;5.80;;
69463;SDS011;56665;41.106;16.688;2022-11-03T13:37:38;8.98;;;5.65;;
69463;SDS011;56665;41.106;16.688;2022-11-03T13:40:42;12.70;;;5.93;;
69463;SDS011;56665;41.106;16.688;2022-11-03T13:43:45;11.48;;;6.05;;
69463;SDS011;56665;41.106;16.688;2022-11-03T13:46:49;10.70;;;6.18;;
69463;SDS011;56665;41.106;16.688;2022-11-03T13:49:53;11.57;;;7.10;;
69463;SDS011;56665;41.106;16.688;2022-11-03T13:52:57;14.30;;;8.00;;
69463;SDS011;56665;41.106;16.688;2022-11-03T13:56:01;13.93;;;9.00;;
69463;SDS011;56665;41.106;16.688;2022-11-03T13:59:06;16.58;;;8.70;;
69463;SDS011;56665;41.106;16.688;2022-11-03T14:02:09;13.93;;;8.50;;
69463;SDS011;56665;41.106;16.688;2022-11-03T14:05:14;14.15;;;8.27;;
69463;SDS011;56665;41.106;16.688;2022-11-03T14:08:18;15.05;;;8.68;;
69463;SDS011;56665;41.106;16.688;2022-11-03T14:11:22;19.30;;;8.65;;
69463;SDS011;56665;41.106;16.688;2022-11-03T14:14:44;14.07;;;8.07;;
69463;SDS011;56665;41.106;16.688;2022-11-03T14:17:47;13.95;;;8.60;;
69463;SDS011;56665;41.106;16.688;2022-11-03T14:20:51;15.55;;;8.95;;
69463;SDS011;56665;41.106;16.688;2022-11-03T14:23:55;16.85;;;9.20;;
69463;SDS011;56665;41.106;16.688;2022-11-03T14:26:59;20.45;;;11.73;;
69463;SDS011;56665;41.106;16.688;2022-11-03T14:30:02;17.25;;;10.57;;
69463;SDS011;56665;41.106;16.688;2022-11-03T14:33:06;20.23;;;10.50;;
69463;SDS011;56665;41.106;16.688;2022-11-03T14:36:10;17.92;;;10.80;;
69463;SDS011;56665;41.106;16.688;2022-11-03T14:39:14;26.83;;;13.55;;
69463;SDS011;56665;41.106;16.688;2022-11-03T14:42:18;30.13;;;15.50;;
69463;SDS011;56665;41.106;16.688;2022-11-03T14:45:22;30.85;;;15.05;;
69463;SDS011;56665;41.106;16.688;2022-11-03T14:48:26;26.17;;;14.00;;
69463;SDS011;56665;41.106;16.688;2022-11-03T14:51:29;26.75;;;14.02;;
69463;SDS011;56665;41.106;16.688;2022-11-03T14:54:33;29.23;;;15.23;;
69463;SDS011;56665;41.106;16.688;2022-11-03T14:57:38;25.13;;;13.63;;
69463;SDS011;56665;41.106;16.688;2022-11-03T15:00:41;23.92;;;14.18;;
69463;SDS011;56665;41.106;16.688;2022-11-03T15:03:45;22.33;;;12.30;;
69463;SDS011;56665;41.106;16.688;2022-11-03T15:06:49;19.42;;;11.40;;
69463;SDS011;56665;41.106;16.688;2022-11-03T15:09:53;19.50;;;11.38;;
69463;SDS011;56665;41.106;16.688;2022-11-03T15:12:57;23.33;;;13.00;;
69463;SDS011;56665;41.106;16.688;2022-11-03T15:16:01;26.77;;;13.65;;
69463;SDS011;56665;41.106;16.688;2022-11-03T15:19:06;34.65;;;16.08;;
69463;SDS011;56665;41.106;16.688;2022-11-03T15:22:09;36.83;;;18.40;;
69463;SDS011;56665;41.106;16.688;2022-11-03T15:25:13;36.55;;;18.73;;
69463;SDS011;56665;41.106;16.688;2022-11-03T15:28:17;36.65;;;17.75;;
69463;SDS011;56665;41.106;16.688;2022-11-03T15:31:23;32.95;;;16.63;;
69463;SDS011;56665;41.106;16.688;2022-11-03T15:34:26;27.23;;;14.32;;
69463;SDS011;56665;41.106;16.688;2022-11-03T15:37:30;22.02;;;13.93;;
69463;SDS011;56665;41.106;16.688;2022-11-03T15:40:34;25.25;;;13.73;;
69463;SDS011;56665;41.106;16.688;2022-11-03T15:43:38;31.30;;;15.75;;
69463;SDS011;56665;41.106;16.688;2022-11-03T15:46:41;29.40;;;14.63;;
69463;SDS011;56665;41.106;16.688;2022-11-03T15:49:45;31.23;;;15.98;;
69463;SDS011;56665;41.106;16.688;2022-11-03T15:52:49;35.67;;;17.38;;
69463;SDS011;56665;41.106;16.688;2022-11-03T15:55:52;28.52;;;13.75;;
69463;SDS011;56665;41.106;16.688;2022-11-03T15:58:56;24.20;;;13.93;;
69463;SDS011;56665;41.106;16.688;2022-11-03T16:02:00;30.90;;;17.65;;
69463;SDS011;56665;41.106;16.688;2022-11-03T16:05:04;48.25;;;23.23;;
69463;SDS011;56665;41.106;16.688;2022-11-03T16:08:08;55.85;;;25.83;;
69463;SDS011;56665;41.106;16.688;2022-11-03T16:11:12;50.60;;;23.38;;
69463;SDS011;56665;41.106;16.688;2022-11-03T16:14:16;39.95;;;19.23;;
69463;SDS011;56665;41.106;16.688;2022-11-03T16:17:20;33.50;;;15.77;;
69463;SDS011;56665;41.106;16.688;2022-11-03T16:20:24;28.02;;;14.30;;
69463;SDS011;56665;41.106;16.688;2022-11-03T16:23:29;24.95;;;13.65;;
69463;SDS011;56665;41.106;16.688;2022-11-03T16:26:33;25.23;;;14.07;;
69463;SDS011;56665;41.106;16.688;2022-11-03T16:29:37;23.30;;;13.38;;
69463;SDS011;56665;41.106;16.688;2022-11-03T16:32:40;24.52;;;13.07;;
69463;SDS011;56665;41.106;16.688;2022-11-03T16:35:44;21.30;;;13.57;;
69463;SDS011;56665;41.106;16.688;2022-11-03T16:38:48;25.60;;;13.60;;
69463;SDS011;56665;41.106;16.688;2022-11-03T16:41:53;29.42;;;15.05;;
69463;SDS011;56665;41.106;16.688;2022-11-03T16:44:57;26.00;;;14.05;;
69463;SDS011;56665;41.106;16.688;2022-11-03T16:48:02;27.48;;;15.50;;
69463;SDS011;56665;41.106;16.688;2022-11-03T16:51:06;22.33;;;14.98;;
69463;SDS011;56665;41.106;16.688;2022-11-03T16:54:10;27.52;;;15.35;;
69463;SDS011;56665;41.106;16.688;2022-11-03T16:57:14;27.35;;;14.57;;
69463;SDS011;56665;41.106;16.688;2022-11-03T17:00:18;25.48;;;13.65;;
69463;SDS011;56665;41.106;16.688;2022-11-03T17:03:22;24.30;;;14.70;;
69463;SDS011;56665;41.106;16.688;2022-11-03T17:06:27;23.67;;;14.60;;
69463;SDS011;56665;41.106;16.688;2022-11-03T17:09:30;26.02;;;14.30;;
69463;SDS011;56665;41.106;16.688;2022-11-03T17:12:34;23.25;;;15.20;;
69463;SDS011;56665;41.106;16.688;2022-11-03T17:15:38;21.58;;;13.15;;
69463;SDS011;56665;41.106;16.688;2022-11-03T17:18:42;20.45;;;12.50;;
69463;SDS011;56665;41.106;16.688;2022-11-03T17:21:45;20.53;;;12.93;;
69463;SDS011;56665;41.106;16.688;2022-11-03T17:24:49;25.08;;;14.35;;
69463;SDS011;56665;41.106;16.688;2022-11-03T17:27:55;22.27;;;14.30;;
69463;SDS011;56665;41.106;16.688;2022-11-03T17:31:01;26.95;;;14.75;;
69463;SDS011;56665;41.106;16.688;2022-11-03T17:34:04;26.73;;;16.13;;
69463;SDS011;56665;41.106;16.688;2022-11-03T17:37:08;23.80;;;14.20;;
69463;SDS011;56665;41.106;16.688;2022-11-03T17:40:16;28.13;;;14.23;;
69463;SDS011;56665;41.106;16.688;2022-11-03T17:43:23;24.48;;;14.32;;
69463;SDS011;56665;41.106;16.688;2022-11-03T17:46:29;30.08;;;17.02;;
69463;SDS011;56665;41.106;16.688;2022-11-03T17:49:33;33.65;;;19.70;;
69463;SDS011;56665;41.106;16.688;2022-11-03T17:52:36;37.63;;;20.20;;
69463;SDS011;56665;41.106;16.688;2022-11-03T17:55:40;42.38;;;21.17;;
69463;SDS011;56665;41.106;16.688;2022-11-03T17:58:44;45.88;;;20.85;;
69463;SDS011;56665;41.106;16.688;2022-11-03T18:01:49;40.80;;;19.58;;
69463;SDS011;56665;41.106;16.688;2022-11-03T18:04:59;41.72;;;23.17;;
69463;SDS011;56665;41.106;16.688;2022-11-03T18:08:15;52.30;;;32.30;;
69463;SDS011;56665;41.106;16.688;2022-11-03T18:11:24;47.60;;;29.23;;
69463;SDS011;56665;41.106;16.688;2022-11-03T18:14:51;35.10;;;21.65;;
69463;SDS011;56665;41.106;16.688;2022-11-03T18:17:54;28.38;;;17.95;;
69463;SDS011;56665;41.106;16.688;2022-11-03T18:20:58;31.25;;;16.55;;
69463;SDS011;56665;41.106;16.688;2022-11-03T18:24:16;25.87;;;14.70;;
69463;SDS011;56665;41.106;16.688;2022-11-03T18:27:22;25.33;;;14.48;;
69463;SDS011;56665;41.106;16.688;2022-11-03T18:30:26;26.80;;;15.15;;
69463;SDS011;56665;41.106;16.688;2022-11-03T18:33:31;26.25;;;14.93;;
69463;SDS011;56665;41.106;16.688;2022-11-03T18:36:38;28.73;;;15.15;;
69463;SDS011;56665;41.106;16.688;2022-11-03T18:39:41;25.87;;;14.27;;
69463;SDS011;56665;41.106;16.688;2022-11-03T18:42:45;22.30;;;13.10;;
69463;SDS011;56665;41.106;16.688;2022-11-03T18:45:50;24.05;;;13.77;;